createdAt,value
2018-03-25T00:00:38.504Z,995.36
2018-03-25T00:01:38.491Z,995.37
2018-03-25T00:02:38.490Z,995.37
2018-03-25T00:03:38.474Z,995.37
2018-03-25T00:04:59.469Z,995.38
2018-03-25T00:05:38.455Z,995.38
2018-03-25T00:06:38.452Z,995.37
2018-03-25T00:07:38.443Z,995.36
2018-03-25T00:08:38.429Z,995.34
2018-03-25T00:09:38.418Z,995.37
2018-03-25T00:10:59.423Z,995.39
2018-03-25T00:11:38.413Z,995.38
2018-03-25T00:12:38.395Z,995.34
2018-03-25T00:13:38.385Z,995.37
2018-03-25T00:14:38.375Z,995.38
2018-03-25T00:15:38.382Z,995.34
2018-03-25T00:16:59.369Z,995.29
2018-03-25T00:17:38.349Z,995.36
2018-03-25T00:18:38.347Z,995.33
2018-03-25T00:19:38.342Z,995.35
2018-03-25T00:20:38.322Z,995.36
2018-03-25T00:21:38.325Z,995.36
2018-03-25T00:22:59.322Z,995.30
2018-03-25T00:23:38.298Z,995.36
2018-03-25T00:24:38.297Z,995.32
2018-03-25T00:25:38.287Z,995.34
2018-03-25T00:26:38.275Z,995.34
2018-03-25T00:27:38.259Z,995.32
2018-03-25T00:28:59.263Z,995.34
2018-03-25T00:29:38.245Z,995.35
2018-03-25T00:30:38.238Z,995.33
2018-03-25T00:31:38.229Z,995.35
2018-03-25T00:32:38.212Z,995.39
2018-03-25T00:33:38.213Z,995.37
2018-03-25T00:34:59.209Z,995.40
2018-03-25T00:35:38.190Z,995.44
2018-03-25T00:36:38.179Z,995.37
2018-03-25T00:37:38.176Z,995.36
2018-03-25T00:38:38.164Z,995.33
2018-03-25T00:39:38.155Z,995.29
2018-03-25T00:40:59.145Z,995.33
2018-03-25T00:41:38.132Z,995.35
2018-03-25T00:42:38.133Z,995.35
2018-03-25T00:43:38.123Z,995.36
2018-03-25T00:44:38.105Z,995.35
2018-03-25T00:45:38.102Z,995.38
2018-03-25T00:46:59.091Z,995.37
2018-03-25T00:47:38.081Z,995.38
2018-03-25T00:48:38.072Z,995.45
2018-03-25T00:49:38.069Z,995.42
2018-03-25T00:50:38.066Z,995.41
2018-03-25T00:51:38.049Z,995.38
2018-03-25T00:52:59.056Z,995.39
2018-03-25T00:53:38.027Z,995.43
2018-03-25T00:54:38.019Z,995.39
2018-03-25T00:55:38.008Z,995.44
2018-03-25T00:56:37.997Z,995.44
2018-03-25T00:57:37.989Z,995.44
2018-03-25T00:58:58.986Z,995.47
2018-03-25T00:59:37.970Z,995.48
2018-03-25T01:00:37.968Z,995.47
2018-03-25T01:01:37.956Z,995.44
2018-03-25T01:02:37.949Z,995.44
2018-03-25T01:03:37.932Z,995.43
2018-03-25T01:04:58.929Z,995.41
2018-03-25T01:05:37.908Z,995.45
2018-03-25T01:06:37.902Z,995.43
2018-03-25T01:07:37.917Z,995.45
2018-03-25T01:08:37.886Z,995.45
2018-03-25T01:09:37.877Z,995.41
2018-03-25T01:10:58.867Z,995.44
2018-03-25T01:11:37.859Z,995.41
2018-03-25T01:12:37.853Z,995.42
2018-03-25T01:13:37.838Z,995.42
2018-03-25T01:14:37.837Z,995.43
2018-03-25T01:15:37.824Z,995.43
2018-03-25T01:16:58.822Z,995.48
2018-03-25T01:17:37.802Z,995.48
2018-03-25T01:18:37.800Z,995.49
2018-03-25T01:19:37.782Z,995.44
2018-03-25T01:20:37.781Z,995.52
2018-03-25T01:21:37.764Z,995.47
2018-03-25T01:22:58.760Z,995.51
2018-03-25T01:23:37.754Z,995.49
2018-03-25T01:24:37.745Z,995.49
2018-03-25T01:25:37.725Z,995.49
2018-03-25T01:26:37.736Z,995.50
2018-03-25T01:27:37.717Z,995.46
2018-03-25T01:28:58.702Z,995.45
2018-03-25T01:29:37.686Z,995.47
2018-03-25T01:30:37.679Z,995.42
2018-03-25T01:31:37.677Z,995.48
2018-03-25T01:32:37.670Z,995.42
2018-03-25T01:33:37.649Z,995.43
2018-03-25T01:34:58.650Z,995.46
2018-03-25T01:35:37.637Z,995.43
2018-03-25T01:36:37.623Z,995.44
2018-03-25T01:37:37.620Z,995.46
2018-03-25T01:38:37.615Z,995.44
2018-03-25T01:39:37.599Z,995.44
2018-03-25T01:40:58.597Z,995.44
2018-03-25T01:41:37.576Z,995.40
2018-03-25T01:42:37.572Z,995.43
2018-03-25T01:43:37.560Z,995.40
2018-03-25T01:44:37.566Z,995.37
2018-03-25T01:45:37.544Z,995.37
2018-03-25T01:46:58.548Z,995.43
2018-03-25T01:47:37.531Z,995.41
2018-03-25T01:48:37.514Z,995.40
2018-03-25T01:49:37.508Z,995.41
2018-03-25T01:50:37.499Z,995.39
2018-03-25T01:51:37.480Z,995.45
2018-03-25T01:52:58.487Z,995.39
2018-03-25T01:53:37.455Z,995.41
2018-03-25T01:54:37.456Z,995.42
2018-03-25T01:55:37.450Z,995.33
2018-03-25T01:56:37.433Z,995.39
2018-03-25T01:57:37.428Z,995.42
2018-03-25T01:58:58.422Z,995.41
2018-03-25T01:59:37.411Z,995.42
2018-03-25T02:00:37.391Z,995.42
2018-03-25T02:01:37.397Z,995.42
2018-03-25T02:02:37.398Z,995.39
2018-03-25T02:03:37.368Z,995.40
2018-03-25T02:04:58.384Z,995.46
2018-03-25T02:05:37.370Z,995.42
2018-03-25T02:06:37.347Z,995.49
2018-03-25T02:07:37.330Z,995.48
2018-03-25T02:08:37.321Z,995.43
2018-03-25T02:09:37.329Z,995.44
2018-03-25T02:10:58.314Z,995.42
2018-03-25T02:11:37.299Z,995.42
2018-03-25T02:12:37.283Z,995.44
2018-03-25T02:13:37.277Z,995.38
2018-03-25T02:14:37.267Z,995.41
2018-03-25T02:15:37.263Z,995.38
2018-03-25T02:16:58.254Z,995.35
2018-03-25T02:17:37.242Z,995.36
2018-03-25T02:18:37.226Z,995.35
2018-03-25T02:19:37.228Z,995.38
2018-03-25T02:20:37.217Z,995.36
2018-03-25T02:21:37.198Z,995.40
2018-03-25T02:22:58.201Z,995.38
2018-03-25T02:23:37.178Z,995.43
2018-03-25T02:24:37.177Z,995.45
2018-03-25T02:25:37.163Z,995.40
2018-03-25T02:26:37.170Z,995.47
2018-03-25T02:27:37.146Z,995.44
2018-03-25T02:28:58.138Z,995.48
2018-03-25T02:29:37.130Z,995.46
2018-03-25T02:30:37.114Z,995.49
2018-03-25T02:31:37.112Z,995.49
2018-03-25T02:32:37.096Z,995.44
2018-03-25T02:33:37.086Z,995.52
2018-03-25T02:34:58.085Z,995.50
2018-03-25T02:35:37.078Z,995.49
2018-03-25T02:36:37.068Z,995.56
2018-03-25T02:37:37.055Z,995.52
2018-03-25T02:38:37.060Z,995.54
2018-03-25T02:39:37.051Z,995.58
2018-03-25T02:40:58.024Z,995.57
2018-03-25T02:41:37.024Z,995.58
2018-03-25T02:42:37.048Z,995.60
2018-03-25T02:43:36.998Z,995.60
2018-03-25T02:44:36.988Z,995.61
2018-03-25T02:45:36.974Z,995.58
2018-03-25T02:46:57.968Z,995.57
2018-03-25T02:47:36.966Z,995.57
2018-03-25T02:48:36.945Z,995.59
2018-03-25T02:49:36.944Z,995.61
2018-03-25T02:50:36.944Z,995.59
2018-03-25T02:51:36.931Z,995.61
2018-03-25T02:52:57.912Z,995.65
2018-03-25T02:53:36.916Z,995.61
2018-03-25T02:54:36.903Z,995.59
2018-03-25T02:55:36.913Z,995.66
2018-03-25T02:56:36.870Z,995.65
2018-03-25T02:57:36.879Z,995.66
2018-03-25T02:58:57.851Z,995.67
2018-03-25T02:59:36.838Z,995.67
2018-03-25T03:00:36.898Z,995.66
2018-03-25T03:01:36.828Z,995.69
2018-03-25T03:02:36.880Z,995.67
2018-03-25T03:03:36.804Z,995.67
2018-03-25T03:04:57.804Z,995.67
2018-03-25T03:05:36.795Z,995.69
2018-03-25T03:06:36.771Z,995.65
2018-03-25T03:07:36.762Z,995.62
2018-03-25T03:08:36.761Z,995.64
2018-03-25T03:09:36.740Z,995.61
2018-03-25T03:10:57.735Z,995.63
2018-03-25T03:11:36.725Z,995.66
2018-03-25T03:12:36.716Z,995.64
2018-03-25T03:13:36.710Z,995.62
2018-03-25T03:14:36.689Z,995.59
2018-03-25T03:15:36.676Z,995.60
2018-03-25T03:16:57.684Z,995.62
2018-03-25T03:17:36.660Z,995.66
2018-03-25T03:18:36.650Z,995.67
2018-03-25T03:19:36.641Z,995.65
2018-03-25T03:20:36.637Z,995.70
2018-03-25T03:21:36.632Z,995.66
2018-03-25T03:22:57.616Z,995.67
2018-03-25T03:23:36.606Z,995.67
2018-03-25T03:24:36.592Z,995.70
2018-03-25T03:25:36.593Z,995.71
2018-03-25T03:26:36.572Z,995.72
2018-03-25T03:27:36.561Z,995.73
2018-03-25T03:28:57.574Z,995.72
2018-03-25T03:29:36.548Z,995.75
2018-03-25T03:30:36.540Z,995.73
2018-03-25T03:31:36.525Z,995.75
2018-03-25T03:32:36.521Z,995.74
2018-03-25T03:33:36.498Z,995.75
2018-03-25T03:34:57.505Z,995.77
2018-03-25T03:35:36.488Z,995.78
2018-03-25T03:36:36.470Z,995.81
2018-03-25T03:37:36.474Z,995.84
2018-03-25T03:38:36.450Z,995.82
2018-03-25T03:39:36.444Z,995.83
2018-03-25T03:40:57.450Z,995.84
2018-03-25T03:41:36.425Z,995.85
2018-03-25T03:42:36.425Z,995.85
2018-03-25T03:43:36.406Z,995.85
2018-03-25T03:44:36.404Z,995.87
2018-03-25T03:45:36.391Z,995.84
2018-03-25T03:46:57.388Z,995.84
2018-03-25T03:47:36.375Z,995.84
2018-03-25T03:48:36.356Z,995.86
2018-03-25T03:49:36.356Z,995.86
2018-03-25T03:50:36.342Z,995.83
2018-03-25T03:51:36.328Z,995.83
2018-03-25T03:52:57.322Z,995.83
2018-03-25T03:53:36.309Z,995.84
2018-03-25T03:54:36.299Z,995.86
2018-03-25T03:55:36.287Z,995.86
2018-03-25T03:56:36.279Z,995.87
2018-03-25T03:57:36.269Z,995.84
2018-03-25T03:58:57.275Z,995.86
2018-03-25T03:59:36.306Z,995.85
2018-03-25T04:00:36.257Z,995.86
2018-03-25T04:01:36.237Z,995.85
2018-03-25T04:02:36.228Z,995.86
2018-03-25T04:03:36.209Z,995.88
2018-03-25T04:04:57.211Z,995.94
2018-03-25T04:05:36.198Z,995.90
2018-03-25T04:06:36.195Z,995.93
2018-03-25T04:07:36.180Z,995.92
2018-03-25T04:08:36.170Z,995.97
2018-03-25T04:09:36.151Z,995.95
2018-03-25T04:10:57.146Z,995.95
2018-03-25T04:11:36.137Z,995.97
2018-03-25T04:12:36.129Z,995.93
2018-03-25T04:13:36.116Z,995.98
2018-03-25T04:14:36.119Z,996.01
2018-03-25T04:15:36.100Z,995.97
2018-03-25T04:16:57.102Z,995.98
2018-03-25T04:17:36.082Z,996.01
2018-03-25T04:18:36.067Z,995.99
2018-03-25T04:19:36.063Z,995.99
2018-03-25T04:20:36.051Z,996.01
2018-03-25T04:21:36.040Z,996.02
2018-03-25T04:22:57.031Z,996.06
2018-03-25T04:23:36.021Z,996.00
2018-03-25T04:24:36.009Z,996.02
2018-03-25T04:25:36.034Z,996.02
2018-03-25T04:26:35.984Z,996.06
2018-03-25T04:27:35.981Z,996.03
2018-03-25T04:28:56.998Z,996.00
2018-03-25T04:29:35.964Z,996.04
2018-03-25T04:30:35.959Z,996.04
2018-03-25T04:31:35.941Z,996.02
2018-03-25T04:32:35.936Z,996.05
2018-03-25T04:33:35.923Z,996.04
2018-03-25T04:34:56.911Z,996.03
2018-03-25T04:35:35.900Z,996.06
2018-03-25T04:36:36.752Z,996.07
2018-03-25T04:37:35.880Z,996.04
2018-03-25T04:38:35.883Z,996.05
2018-03-25T04:39:35.868Z,996.07
2018-03-25T04:40:56.856Z,996.09
2018-03-25T04:41:36.710Z,996.10
2018-03-25T04:42:35.839Z,996.08
2018-03-25T04:43:35.830Z,996.10
2018-03-25T04:44:35.810Z,996.12
2018-03-25T04:45:35.807Z,996.10
2018-03-25T04:46:56.799Z,996.12
2018-03-25T04:47:35.785Z,996.13
2018-03-25T04:48:35.779Z,996.13
2018-03-25T04:49:35.767Z,996.12
2018-03-25T04:50:35.751Z,996.14
2018-03-25T04:51:36.619Z,996.14
2018-03-25T04:52:56.739Z,996.16
2018-03-25T04:53:35.726Z,996.15
2018-03-25T04:54:35.709Z,996.15
2018-03-25T04:55:35.701Z,996.11
2018-03-25T04:56:35.687Z,996.14
2018-03-25T04:57:35.698Z,996.12
2018-03-25T04:58:56.679Z,996.17
2018-03-25T04:59:35.669Z,996.19
2018-03-25T05:00:35.653Z,996.17
2018-03-25T05:01:35.649Z,996.20
2018-03-25T05:02:35.639Z,996.18
2018-03-25T05:03:35.628Z,996.22
2018-03-25T05:04:56.618Z,996.21
2018-03-25T05:05:35.625Z,996.20
2018-03-25T05:06:35.607Z,996.23
2018-03-25T05:07:35.586Z,996.25
2018-03-25T05:08:35.581Z,996.25
2018-03-25T05:09:35.563Z,996.25
2018-03-25T05:10:56.567Z,996.28
2018-03-25T05:11:35.548Z,996.31
2018-03-25T05:12:35.540Z,996.33
2018-03-25T05:13:35.534Z,996.36
2018-03-25T05:14:35.529Z,996.33
2018-03-25T05:15:35.514Z,996.35
2018-03-25T05:16:56.502Z,996.36
2018-03-25T05:17:35.496Z,996.38
2018-03-25T05:18:35.481Z,996.41
2018-03-25T05:19:35.470Z,996.44
2018-03-25T05:20:35.466Z,996.40
2018-03-25T05:21:35.530Z,996.48
2018-03-25T05:22:56.446Z,996.44
2018-03-25T05:23:35.475Z,996.49
2018-03-25T05:24:35.417Z,996.47
2018-03-25T05:25:35.466Z,996.47
2018-03-25T05:26:35.399Z,996.51
2018-03-25T05:27:35.389Z,996.51
2018-03-25T05:28:56.388Z,996.56
2018-03-25T05:29:35.368Z,996.55
2018-03-25T05:30:35.371Z,996.54
2018-03-25T05:31:35.349Z,996.54
2018-03-25T05:32:35.339Z,996.57
2018-03-25T05:33:35.334Z,996.56
2018-03-25T05:34:56.331Z,996.55
2018-03-25T05:35:35.316Z,996.58
2018-03-25T05:36:35.300Z,996.59
2018-03-25T05:37:35.284Z,996.59
2018-03-25T05:38:35.286Z,996.59
2018-03-25T05:39:35.268Z,996.60
2018-03-25T05:40:56.272Z,996.61
2018-03-25T05:41:35.256Z,996.65
2018-03-25T05:42:35.239Z,996.61
2018-03-25T05:43:35.230Z,996.65
2018-03-25T05:44:35.218Z,996.68
2018-03-25T05:45:35.211Z,996.73
2018-03-25T05:46:56.209Z,996.72
2018-03-25T05:47:35.202Z,996.76
2018-03-25T05:48:35.186Z,996.81
2018-03-25T05:49:35.174Z,996.80
2018-03-25T05:50:35.167Z,996.82
2018-03-25T05:51:35.144Z,996.85
2018-03-25T05:52:56.141Z,996.86
2018-03-25T05:53:35.131Z,996.89
2018-03-25T05:54:35.117Z,996.93
2018-03-25T05:55:35.107Z,996.95
2018-03-25T05:56:35.104Z,996.94
2018-03-25T05:57:35.094Z,996.98
2018-03-25T05:58:56.083Z,997.02
2018-03-25T05:59:35.069Z,997.02
2018-03-25T06:00:35.064Z,997.05
2018-03-25T06:01:35.062Z,997.03
2018-03-25T06:02:35.047Z,997.04
2018-03-25T06:03:35.035Z,997.05
2018-03-25T06:04:56.022Z,997.06
2018-03-25T06:05:35.007Z,997.07
2018-03-25T06:06:35.016Z,997.05
2018-03-25T06:07:35.002Z,997.06
2018-03-25T06:08:34.984Z,997.06
2018-03-25T06:09:34.974Z,997.11
2018-03-25T06:10:55.968Z,997.09
2018-03-25T06:11:34.963Z,997.04
2018-03-25T06:12:34.947Z,997.03
2018-03-25T06:13:34.940Z,997.09
2018-03-25T06:14:34.931Z,997.10
2018-03-25T06:15:34.926Z,997.10
2018-03-25T06:16:55.908Z,997.09
2018-03-25T06:17:34.895Z,997.12
2018-03-25T06:18:34.884Z,997.12
2018-03-25T06:19:34.886Z,997.12
2018-03-25T06:20:34.860Z,997.12
2018-03-25T06:21:34.856Z,997.12
2018-03-25T06:22:55.861Z,997.14
2018-03-25T06:23:34.845Z,997.12
2018-03-25T06:24:34.832Z,997.17
2018-03-25T06:25:34.814Z,997.21
2018-03-25T06:26:34.817Z,997.15
2018-03-25T06:27:34.797Z,997.18
2018-03-25T06:28:55.851Z,997.19
2018-03-25T06:29:34.783Z,997.24
2018-03-25T06:30:34.795Z,997.24
2018-03-25T06:31:34.761Z,997.24
2018-03-25T06:32:34.755Z,997.26
2018-03-25T06:33:34.747Z,997.27
2018-03-25T06:34:55.742Z,997.29
2018-03-25T06:35:34.725Z,997.35
2018-03-25T06:36:34.722Z,997.31
2018-03-25T06:37:34.714Z,997.29
2018-03-25T06:38:34.707Z,997.32
2018-03-25T06:39:34.687Z,997.35
2018-03-25T06:40:55.687Z,997.35
2018-03-25T06:41:34.672Z,997.38
2018-03-25T06:42:34.664Z,997.40
2018-03-25T06:43:34.651Z,997.43
2018-03-25T06:44:34.650Z,997.42
2018-03-25T06:45:34.635Z,997.43
2018-03-25T06:46:55.632Z,997.47
2018-03-25T06:47:34.617Z,997.48
2018-03-25T06:48:34.623Z,997.47
2018-03-25T06:49:34.598Z,997.46
2018-03-25T06:50:34.588Z,997.44
2018-03-25T06:51:34.580Z,997.47
2018-03-25T06:52:55.577Z,997.51
2018-03-25T06:53:34.556Z,997.52
2018-03-25T06:54:34.546Z,997.51
2018-03-25T06:55:34.539Z,997.52
2018-03-25T06:56:34.539Z,997.54
2018-03-25T06:57:34.518Z,997.54
2018-03-25T06:58:55.515Z,997.53
2018-03-25T06:59:34.505Z,997.54
2018-03-25T07:00:34.509Z,997.58
2018-03-25T07:01:34.487Z,997.59
2018-03-25T07:02:34.484Z,997.60
2018-03-25T07:03:34.462Z,997.66
2018-03-25T07:04:55.474Z,997.62
2018-03-25T07:05:34.444Z,997.67
2018-03-25T07:06:34.444Z,997.63
2018-03-25T07:07:34.443Z,997.67
2018-03-25T07:08:34.435Z,997.70
2018-03-25T07:09:34.417Z,997.71
2018-03-25T07:10:56.176Z,997.74
2018-03-25T07:11:34.399Z,997.72
2018-03-25T07:12:34.404Z,997.76
2018-03-25T07:13:34.369Z,997.77
2018-03-25T07:14:34.376Z,997.79
2018-03-25T07:15:34.356Z,997.75
2018-03-25T07:16:55.357Z,997.79
2018-03-25T07:17:34.345Z,997.86
2018-03-25T07:18:34.339Z,997.81
2018-03-25T07:19:34.337Z,997.84
2018-03-25T07:20:34.320Z,997.86
2018-03-25T07:21:34.309Z,997.91
2018-03-25T07:22:55.311Z,997.88
2018-03-25T07:23:34.292Z,997.90
2018-03-25T07:24:34.293Z,997.91
2018-03-25T07:25:34.284Z,997.94
2018-03-25T07:26:34.262Z,997.92
2018-03-25T07:27:34.256Z,997.98
2018-03-25T07:28:55.252Z,997.97
2018-03-25T07:29:34.247Z,997.99
2018-03-25T07:30:34.230Z,997.99
2018-03-25T07:31:34.224Z,997.99
2018-03-25T07:32:34.215Z,997.91
2018-03-25T07:33:34.199Z,997.96
2018-03-25T07:34:55.206Z,997.95
2018-03-25T07:35:34.181Z,997.98
2018-03-25T07:36:34.178Z,997.99
2018-03-25T07:37:34.171Z,997.97
2018-03-25T07:38:34.157Z,997.99
2018-03-25T07:39:34.158Z,998.01
2018-03-25T07:40:55.151Z,997.97
2018-03-25T07:41:34.130Z,997.97
2018-03-25T07:42:34.135Z,997.96
2018-03-25T07:43:34.139Z,997.97
2018-03-25T07:44:34.114Z,997.95
2018-03-25T07:45:34.098Z,998.00
2018-03-25T07:46:55.095Z,997.97
2018-03-25T07:47:34.087Z,998.00
2018-03-25T07:48:34.078Z,997.97
2018-03-25T07:49:34.071Z,997.98
2018-03-25T07:50:34.063Z,997.98
2018-03-25T07:51:34.050Z,997.99
2018-03-25T07:52:55.038Z,998.01
2018-03-25T07:53:34.032Z,998.01
2018-03-25T07:54:34.028Z,998.04
2018-03-25T07:55:34.017Z,998.04
2018-03-25T07:56:34.011Z,998.03
2018-03-25T07:57:33.990Z,998.08
2018-03-25T07:58:54.986Z,998.08
2018-03-25T07:59:33.981Z,998.08
2018-03-25T08:00:33.981Z,998.11
2018-03-25T08:01:33.973Z,998.14
2018-03-25T08:02:33.955Z,998.12
2018-03-25T08:03:33.948Z,998.15
2018-03-25T08:04:54.949Z,998.19
2018-03-25T08:05:33.928Z,998.16
2018-03-25T08:06:33.930Z,998.15
2018-03-25T08:07:33.918Z,998.11
2018-03-25T08:08:33.915Z,998.13
2018-03-25T08:09:33.912Z,998.14
2018-03-25T08:10:54.907Z,998.20
2018-03-25T08:11:33.897Z,998.15
2018-03-25T08:12:33.869Z,998.14
2018-03-25T08:13:33.878Z,998.22
2018-03-25T08:14:33.864Z,998.22
2018-03-25T08:15:33.847Z,998.24
2018-03-25T08:16:54.853Z,998.25
2018-03-25T08:17:33.834Z,998.29
2018-03-25T08:18:33.835Z,998.25
2018-03-25T08:19:33.813Z,998.29
2018-03-25T08:20:33.815Z,998.25
2018-03-25T08:21:33.820Z,998.26
2018-03-25T08:22:55.344Z,998.25
2018-03-25T08:23:33.784Z,998.30
2018-03-25T08:24:33.777Z,998.31
2018-03-25T08:25:33.768Z,998.31
2018-03-25T08:26:33.775Z,998.35
2018-03-25T08:27:33.762Z,998.30
2018-03-25T08:28:54.748Z,998.30
2018-03-25T08:29:33.746Z,998.37
2018-03-25T08:30:33.738Z,998.33
2018-03-25T08:31:33.716Z,998.39
2018-03-25T08:32:33.711Z,998.37
2018-03-25T08:33:33.703Z,998.35
2018-03-25T08:34:54.698Z,998.36
2018-03-25T08:35:33.680Z,998.36
2018-03-25T08:36:33.682Z,998.41
2018-03-25T08:37:33.666Z,998.42
2018-03-25T08:38:33.659Z,998.46
2018-03-25T08:39:33.667Z,998.42
2018-03-25T08:40:54.651Z,998.45
2018-03-25T08:41:33.642Z,998.46
2018-03-25T08:42:33.640Z,998.45
2018-03-25T08:43:33.622Z,998.49
2018-03-25T08:44:33.610Z,998.48
2018-03-25T08:45:33.617Z,998.48
2018-03-25T08:46:54.604Z,998.53
2018-03-25T08:47:33.598Z,998.54
2018-03-25T08:48:33.576Z,998.55
2018-03-25T08:49:33.581Z,998.57
2018-03-25T08:50:33.577Z,998.51
2018-03-25T08:51:33.571Z,998.54
2018-03-25T08:52:54.560Z,998.55
2018-03-25T08:53:33.548Z,998.54
2018-03-25T08:54:33.553Z,998.56
2018-03-25T08:55:33.535Z,998.57
2018-03-25T08:56:33.523Z,998.61
2018-03-25T08:57:33.515Z,998.64
2018-03-25T08:58:54.519Z,998.65
2018-03-25T08:59:33.510Z,998.61
2018-03-25T09:00:33.502Z,998.63
2018-03-25T09:01:33.487Z,998.61
2018-03-25T09:02:33.476Z,998.59
2018-03-25T09:03:33.467Z,998.62
2018-03-25T09:04:54.468Z,998.58
2018-03-25T09:05:33.450Z,998.63
2018-03-25T09:06:33.445Z,998.62
2018-03-25T09:07:33.445Z,998.60
2018-03-25T09:08:33.446Z,998.65
2018-03-25T09:09:33.431Z,998.61
2018-03-25T09:10:54.418Z,998.61
2018-03-25T09:11:33.408Z,998.63
2018-03-25T09:12:33.410Z,998.62
2018-03-25T09:13:33.397Z,998.62
2018-03-25T09:14:33.389Z,998.64
2018-03-25T09:15:33.375Z,998.60
2018-03-25T09:16:54.380Z,998.60
2018-03-25T09:17:33.365Z,998.63
2018-03-25T09:18:33.353Z,998.59
2018-03-25T09:19:33.346Z,998.65
2018-03-25T09:20:33.348Z,998.65
2018-03-25T09:21:33.336Z,998.64
2018-03-25T09:22:54.358Z,998.66
2018-03-25T09:23:33.316Z,998.69
2018-03-25T09:24:33.319Z,998.69
2018-03-25T09:25:33.304Z,998.66
2018-03-25T09:26:33.304Z,998.64
2018-03-25T09:27:33.293Z,998.65
2018-03-25T09:28:54.297Z,998.67
2018-03-25T09:29:33.270Z,998.70
2018-03-25T09:30:33.280Z,998.68
2018-03-25T09:31:33.269Z,998.69
2018-03-25T09:32:33.267Z,998.70
2018-03-25T09:33:33.243Z,998.71
2018-03-25T09:34:54.250Z,998.67
2018-03-25T09:35:33.230Z,998.69
2018-03-25T09:36:33.237Z,998.68
2018-03-25T09:37:33.216Z,998.72
2018-03-25T09:38:33.209Z,998.70
2018-03-25T09:39:33.212Z,998.68
2018-03-25T09:40:54.199Z,998.72
2018-03-25T09:41:33.187Z,998.71
2018-03-25T09:42:33.187Z,998.76
2018-03-25T09:43:33.189Z,998.79
2018-03-25T09:44:33.177Z,998.77
2018-03-25T09:45:33.163Z,998.71
2018-03-25T09:46:54.163Z,998.81
2018-03-25T09:47:33.157Z,998.79
2018-03-25T09:48:33.146Z,998.79
2018-03-25T09:49:33.134Z,998.79
2018-03-25T09:50:33.139Z,998.76
2018-03-25T09:51:33.115Z,998.76
2018-03-25T09:52:54.120Z,998.77
2018-03-25T09:53:33.108Z,998.76
2018-03-25T09:54:33.100Z,998.78
2018-03-25T09:55:33.110Z,998.78
2018-03-25T09:56:33.091Z,998.71
2018-03-25T09:57:33.089Z,998.75
2018-03-25T09:58:54.087Z,998.79
2018-03-25T09:59:33.072Z,998.76
2018-03-25T10:00:33.060Z,998.76
2018-03-25T10:01:33.050Z,998.76
2018-03-25T10:02:33.053Z,998.75
2018-03-25T10:03:33.036Z,998.72
2018-03-25T10:04:54.060Z,998.74
2018-03-25T10:05:33.036Z,998.71
2018-03-25T10:06:33.022Z,998.74
2018-03-25T10:07:33.032Z,998.79
2018-03-25T10:08:33.001Z,998.79
2018-03-25T10:09:33.003Z,998.76
2018-03-25T10:10:54.009Z,998.79
2018-03-25T10:11:33.039Z,998.82
2018-03-25T10:12:32.984Z,998.77
2018-03-25T10:13:32.984Z,998.77
2018-03-25T10:14:32.966Z,998.75
2018-03-25T10:15:32.977Z,998.76
2018-03-25T10:16:53.964Z,998.76
2018-03-25T10:17:32.947Z,998.77
2018-03-25T10:18:32.942Z,998.80
2018-03-25T10:19:32.940Z,998.77
2018-03-25T10:20:32.932Z,998.76
2018-03-25T10:21:33.170Z,998.78
2018-03-25T10:22:53.922Z,998.75
2018-03-25T10:23:32.904Z,998.79
2018-03-25T10:24:32.905Z,998.78
2018-03-25T10:25:32.904Z,998.75
2018-03-25T10:26:32.898Z,998.76
2018-03-25T10:27:32.879Z,998.73
2018-03-25T10:28:53.876Z,998.74
2018-03-25T10:29:32.881Z,998.76
2018-03-25T10:30:32.862Z,998.71
2018-03-25T10:31:32.882Z,998.67
2018-03-25T10:32:32.855Z,998.71
2018-03-25T10:33:32.851Z,998.71
2018-03-25T10:34:53.849Z,998.70
2018-03-25T10:35:32.843Z,998.69
2018-03-25T10:36:32.829Z,998.71
2018-03-25T10:37:32.828Z,998.67
2018-03-25T10:38:32.817Z,998.70
2018-03-25T10:39:32.829Z,998.72
2018-03-25T10:40:53.814Z,998.70
2018-03-25T10:41:32.798Z,998.68
2018-03-25T10:42:32.800Z,998.63
2018-03-25T10:43:32.781Z,998.61
2018-03-25T10:44:32.783Z,998.69
2018-03-25T10:45:32.767Z,998.66
2018-03-25T10:46:53.779Z,998.66
2018-03-25T10:47:32.772Z,998.69
2018-03-25T10:48:32.753Z,998.63
2018-03-25T10:49:32.763Z,998.65
2018-03-25T10:50:32.743Z,998.64
2018-03-25T10:51:32.742Z,998.62
2018-03-25T10:52:53.731Z,998.64
2018-03-25T10:53:32.723Z,998.69
2018-03-25T10:54:32.719Z,998.66
2018-03-25T10:55:32.712Z,998.61
2018-03-25T10:56:32.705Z,998.67
2018-03-25T10:57:32.708Z,998.65
2018-03-25T10:58:53.705Z,998.66
2018-03-25T10:59:32.695Z,998.58
2018-03-25T11:00:32.686Z,998.60
2018-03-25T11:01:32.679Z,998.62
2018-03-25T11:02:32.675Z,998.72
2018-03-25T11:03:32.663Z,998.69
2018-03-25T11:04:53.661Z,998.65
2018-03-25T11:05:32.656Z,998.65
2018-03-25T11:06:32.659Z,998.61
2018-03-25T11:07:32.653Z,998.71
2018-03-25T11:08:32.634Z,998.65
2018-03-25T11:09:32.639Z,998.64
2018-03-25T11:10:53.634Z,998.65
2018-03-25T11:11:32.618Z,998.65
2018-03-25T11:12:32.609Z,998.68
2018-03-25T11:13:32.610Z,998.64
2018-03-25T11:14:32.597Z,998.64
2018-03-25T11:15:32.601Z,998.68
2018-03-25T11:16:53.594Z,998.66
2018-03-25T11:17:32.584Z,998.64
2018-03-25T11:18:32.579Z,998.63
2018-03-25T11:19:32.567Z,998.63
2018-03-25T11:20:32.573Z,998.62
2018-03-25T11:21:32.571Z,998.60
2018-03-25T11:22:53.605Z,998.65
2018-03-25T11:23:32.563Z,998.62
2018-03-25T11:24:32.552Z,998.64
2018-03-25T11:25:32.538Z,998.68
2018-03-25T11:26:32.540Z,998.71
2018-03-25T11:27:32.542Z,998.72
2018-03-25T11:28:53.563Z,998.75
2018-03-25T11:29:32.527Z,998.85
2018-03-25T11:30:32.521Z,998.89
2018-03-25T11:31:32.512Z,998.86
2018-03-25T11:32:32.516Z,998.90
2018-03-25T11:33:32.500Z,998.87
2018-03-25T11:34:53.504Z,998.80
2018-03-25T11:35:32.491Z,998.85
2018-03-25T11:36:32.486Z,998.86
2018-03-25T11:37:32.484Z,998.85
2018-03-25T11:38:32.481Z,998.81
2018-03-25T11:39:32.476Z,998.84
2018-03-25T11:40:53.505Z,998.83
2018-03-25T11:41:32.475Z,998.81
2018-03-25T11:42:32.461Z,998.77
2018-03-25T11:43:32.463Z,998.79
2018-03-25T11:44:32.452Z,998.79
2018-03-25T11:45:32.479Z,998.83
2018-03-25T11:46:53.460Z,998.81
2018-03-25T11:47:32.461Z,998.80
2018-03-25T11:48:32.444Z,998.78
2018-03-25T11:49:32.447Z,998.78
2018-03-25T11:50:32.446Z,998.81
2018-03-25T11:51:32.435Z,998.76
2018-03-25T11:52:53.444Z,998.78
2018-03-25T11:53:32.437Z,998.76
2018-03-25T11:54:32.426Z,998.73
2018-03-25T11:55:32.430Z,998.77
2018-03-25T11:56:32.428Z,998.74
2018-03-25T11:57:32.432Z,998.69
2018-03-25T11:58:53.430Z,998.78
2018-03-25T11:59:32.421Z,998.71
2018-03-25T12:00:32.411Z,998.73
2018-03-25T12:01:33.414Z,998.72
2018-03-25T12:02:32.419Z,998.75
2018-03-25T12:03:32.412Z,998.75
2018-03-25T12:04:53.418Z,998.72
2018-03-25T12:05:32.414Z,998.72
2018-03-25T12:06:32.403Z,998.74
2018-03-25T12:07:32.408Z,998.75
2018-03-25T12:08:32.408Z,998.74
2018-03-25T12:09:32.404Z,998.72
2018-03-25T12:10:53.414Z,998.72
2018-03-25T12:11:32.393Z,998.70
2018-03-25T12:12:32.454Z,998.66
2018-03-25T12:13:32.394Z,998.69
2018-03-25T12:14:32.399Z,998.73
2018-03-25T12:15:32.396Z,998.68
2018-03-25T12:16:53.417Z,998.68
2018-03-25T12:17:32.392Z,998.74
2018-03-25T12:18:32.401Z,998.70
2018-03-25T12:19:32.401Z,998.71
2018-03-25T12:20:32.412Z,998.68
2018-03-25T12:21:32.381Z,998.72
2018-03-25T12:22:53.400Z,998.67
2018-03-25T12:23:32.378Z,998.65
2018-03-25T12:24:32.390Z,998.65
2018-03-25T12:25:32.378Z,998.66
2018-03-25T12:26:32.377Z,998.64
2018-03-25T12:27:32.380Z,998.66
2018-03-25T12:28:53.398Z,998.65